createdAt,value
2022-10-19T00:00:27.142Z,3.50
2022-10-19T00:02:55.824Z,4.47
2022-10-19T00:05:23.822Z,3.35
2022-10-19T00:07:52.595Z,3.90
2022-10-19T00:10:22.623Z,3.90
2022-10-19T00:12:50.778Z,4.10
2022-10-19T00:15:26.212Z,3.80
2022-10-19T00:20:25.420Z,3.65
2022-10-19T00:22:53.899Z,3.58
2022-10-19T00:25:24.906Z,4.85
2022-10-19T00:27:58.067Z,4.20
2022-10-19T00:30:28.174Z,3.60
2022-10-19T00:32:58.553Z,4.75
2022-10-19T00:35:27.274Z,4.60
2022-10-19T00:37:57.154Z,3.67
2022-10-19T00:40:28.805Z,3.67
2022-10-19T00:43:00.106Z,4.15
2022-10-19T00:45:35.208Z,4.13
2022-10-19T00:48:03.897Z,3.78
2022-10-19T00:50:34.972Z,4.65
2022-10-19T00:53:06.958Z,4.85
2022-10-19T00:55:36.583Z,4.43
2022-10-19T00:58:18.267Z,4.32
2022-10-19T01:01:03.533Z,5.13
2022-10-19T01:03:35.543Z,4.22
2022-10-19T01:06:05.913Z,4.38
2022-10-19T01:08:35.841Z,3.85
2022-10-19T01:11:23.963Z,3.85
2022-10-19T01:14:07.622Z,3.60
2022-10-19T01:16:51.383Z,4.70
2022-10-19T01:19:41.735Z,3.80
2022-10-19T01:22:25.533Z,3.83
2022-10-19T01:25:02.284Z,3.72
2022-10-19T01:27:46.620Z,3.88
2022-10-19T01:30:19.611Z,4.28
2022-10-19T01:33:03.482Z,4.40
2022-10-19T01:35:44.263Z,3.85
2022-10-19T01:38:24.937Z,3.88
2022-10-19T01:41:07.250Z,4.15
2022-10-19T01:43:46.125Z,3.95
2022-10-19T01:46:25.048Z,3.80
2022-10-19T01:49:02.125Z,4.55
2022-10-19T01:51:37.528Z,3.30
2022-10-19T01:56:48.355Z,4.10
2022-10-19T01:59:24.364Z,4.25
2022-10-19T02:02:07.740Z,3.85
2022-10-19T02:04:40.033Z,4.78
2022-10-19T02:07:10.381Z,3.92
2022-10-19T02:09:42.615Z,5.32
2022-10-19T02:12:14.882Z,4.80
2022-10-19T02:14:48.547Z,4.45
2022-10-19T02:17:32.555Z,4.50
2022-10-19T02:20:02.870Z,4.95
2022-10-19T02:22:32.058Z,4.43
2022-10-19T02:25:00.780Z,4.95
2022-10-19T02:27:30.455Z,4.65
2022-10-19T02:30:06.559Z,4.53
2022-10-19T02:32:42.016Z,5.75
2022-10-19T02:37:42.895Z,5.05
2022-10-19T02:40:17.653Z,4.40
2022-10-19T02:42:56.430Z,4.20
2022-10-19T02:45:43.265Z,4.32
2022-10-19T02:48:23.107Z,4.80
2022-10-19T02:50:54.789Z,4.50
2022-10-19T02:53:24.310Z,6.05
2022-10-19T02:55:54.149Z,5.20
2022-10-19T02:58:22.907Z,5.03
2022-10-19T03:00:54.385Z,4.78
2022-10-19T03:03:29.230Z,4.50
2022-10-19T03:05:59.110Z,5.05
2022-10-19T03:08:33.843Z,5.32
2022-10-19T03:11:04.251Z,5.10
2022-10-19T03:13:34.127Z,5.70
2022-10-19T03:16:23.631Z,4.97
2022-10-19T03:18:57.222Z,6.53
2022-10-19T03:21:30.992Z,5.82
2022-10-19T03:24:08.496Z,4.72
2022-10-19T03:26:53.845Z,5.75
2022-10-19T03:29:29.360Z,4.80
2022-10-19T03:32:02.456Z,5.13
2022-10-19T03:34:32.408Z,5.93
2022-10-19T03:37:03.412Z,5.28
2022-10-19T03:39:35.017Z,6.03
2022-10-19T03:42:04.192Z,5.63
2022-10-19T03:44:34.834Z,5.97
2022-10-19T03:47:08.473Z,5.82
2022-10-19T03:49:42.614Z,5.50
2022-10-19T03:52:17.963Z,6.15
2022-10-19T03:54:52.356Z,5.68
2022-10-19T03:57:28.506Z,6.68
2022-10-19T04:00:00.142Z,6.68
2022-10-19T04:02:31.784Z,7.03
2022-10-19T04:05:10.373Z,6.63
2022-10-19T04:07:41.240Z,6.10
2022-10-19T04:10:14.542Z,5.88
2022-10-19T04:12:53.986Z,5.60
2022-10-19T04:15:25.801Z,6.18
2022-10-19T04:18:02.400Z,6.72
2022-10-19T04:20:37.247Z,6.22
2022-10-19T04:23:06.485Z,6.78
2022-10-19T04:25:38.268Z,6.65
2022-10-19T04:28:11.893Z,6.90
2022-10-19T04:30:42.046Z,5.85
2022-10-19T04:33:18.965Z,6.22
2022-10-19T04:35:52.457Z,6.45
2022-10-19T04:38:23.508Z,5.82
2022-10-19T04:40:55.115Z,5.97
2022-10-19T04:43:28.731Z,6.45
2022-10-19T04:46:08.350Z,6.72
2022-10-19T04:48:39.186Z,7.05
2022-10-19T04:51:32.999Z,7.18
2022-10-19T04:54:02.140Z,6.85
2022-10-19T04:56:33.468Z,6.88
2022-10-19T04:59:12.524Z,6.38
2022-10-19T05:01:46.554Z,6.30
2022-10-19T05:04:16.802Z,7.93
2022-10-19T05:06:48.553Z,7.35
2022-10-19T05:09:20.121Z,7.43
2022-10-19T05:11:54.569Z,7.57
2022-10-19T05:17:00.271Z,6.88
2022-10-19T05:19:40.462Z,8.30
2022-10-19T05:22:10.451Z,6.72
2022-10-19T05:24:39.332Z,7.47
2022-10-19T05:27:10.822Z,7.40
2022-10-19T05:29:39.710Z,7.63
2022-10-19T05:32:11.236Z,7.78
2022-10-19T05:34:43.678Z,8.93
2022-10-19T05:37:16.081Z,7.70
2022-10-19T05:39:46.220Z,7.78
2022-10-19T05:42:18.765Z,6.60
2022-10-19T05:44:47.150Z,7.82
2022-10-19T05:47:18.244Z,7.68
2022-10-19T05:49:48.993Z,7.50
2022-10-19T05:52:19.279Z,7.20
2022-10-19T05:54:47.333Z,8.50
2022-10-19T05:57:15.888Z,8.05
2022-10-19T05:59:44.859Z,7.53
2022-10-19T06:02:16.127Z,7.50
2022-10-19T06:04:44.900Z,8.43
2022-10-19T06:07:13.020Z,7.80
2022-10-19T06:09:42.388Z,8.48
2022-10-19T06:12:11.175Z,7.72
2022-10-19T06:14:39.161Z,8.68
2022-10-19T06:17:07.699Z,8.73
2022-10-19T06:19:36.993Z,8.85
2022-10-19T06:22:05.367Z,8.30
2022-10-19T06:24:36.254Z,7.80
2022-10-19T06:27:07.044Z,8.27
2022-10-19T06:29:35.052Z,8.00
2022-10-19T06:32:06.034Z,8.40
2022-10-19T06:34:34.547Z,8.25
2022-10-19T06:37:02.521Z,8.18
2022-10-19T06:39:30.893Z,9.30
2022-10-19T06:41:59.120Z,8.43
2022-10-19T06:44:29.206Z,7.68
2022-10-19T06:46:58.368Z,8.57
2022-10-19T06:49:26.812Z,9.10
2022-10-19T06:51:54.818Z,8.02
2022-10-19T06:54:25.660Z,9.20
2022-10-19T06:56:53.702Z,7.40
2022-10-19T06:59:21.763Z,9.20
2022-10-19T07:01:52.561Z,8.02
2022-10-19T07:04:20.555Z,8.25
2022-10-19T07:06:48.741Z,8.15
2022-10-19T07:09:17.895Z,8.50
2022-10-19T07:11:46.384Z,9.48
2022-10-19T07:14:15.746Z,8.60
2022-10-19T07:16:43.755Z,9.02
2022-10-19T07:19:13.642Z,9.90
2022-10-19T07:21:43.983Z,9.32
2022-10-19T07:24:11.995Z,8.20
2022-10-19T07:26:39.795Z,10.05
2022-10-19T07:29:08.016Z,9.77
2022-10-19T07:31:35.844Z,9.70
2022-10-19T07:34:05.591Z,9.27
2022-10-19T07:36:37.176Z,10.80
2022-10-19T07:39:06.832Z,9.60
2022-10-19T07:41:35.864Z,9.25
2022-10-19T07:44:21.192Z,10.90
2022-10-19T07:46:52.209Z,10.25
2022-10-19T07:49:25.066Z,10.25
2022-10-19T07:52:10.962Z,9.85
2022-10-19T07:54:39.451Z,10.27
2022-10-19T07:57:13.571Z,10.48
2022-10-19T07:59:43.513Z,9.88
2022-10-19T08:02:15.974Z,9.65
2022-10-19T08:05:00.832Z,9.07
2022-10-19T08:07:34.284Z,9.63
2022-10-19T08:10:02.755Z,10.23
2022-10-19T08:12:30.779Z,11.10
2022-10-19T08:14:58.682Z,10.65
2022-10-19T08:17:28.547Z,10.57
2022-10-19T08:19:56.480Z,11.05
2022-10-19T08:22:24.811Z,9.82
2022-10-19T08:24:54.203Z,10.00
2022-10-19T08:27:22.163Z,9.65
2022-10-19T08:29:50.628Z,9.20
2022-10-19T08:32:19.376Z,9.80
2022-10-19T08:34:47.313Z,10.15
2022-10-19T08:37:25.804Z,9.80
2022-10-19T08:40:06.610Z,9.95
2022-10-19T08:42:52.207Z,10.05
2022-10-19T08:48:26.486Z,9.13
2022-10-19T08:50:57.082Z,10.95
2022-10-19T08:56:51.117Z,8.93
2022-10-19T08:59:29.782Z,10.07
2022-10-19T09:02:01.290Z,9.80
2022-10-19T09:04:34.038Z,9.55
2022-10-19T09:07:21.144Z,10.23
2022-10-19T09:09:55.340Z,10.48
2022-10-19T09:12:37.228Z,9.90
2022-10-19T09:15:08.818Z,9.98
2022-10-19T09:17:36.699Z,9.57
2022-10-19T09:20:17.249Z,9.55
2022-10-19T09:22:46.066Z,10.75
2022-10-19T09:25:26.933Z,10.65
2022-10-19T09:28:16.955Z,10.35
2022-10-19T09:31:06.350Z,9.75
2022-10-19T09:33:38.301Z,9.40
2022-10-19T09:36:10.399Z,9.38
2022-10-19T09:38:40.174Z,10.55
2022-10-19T09:41:19.354Z,10.02
2022-10-19T09:43:54.548Z,8.98
2022-10-19T09:46:32.215Z,9.90
2022-10-19T09:49:02.466Z,10.73
2022-10-19T09:51:41.798Z,10.45
2022-10-19T09:54:32.350Z,9.65
2022-10-19T09:57:00.392Z,11.43
2022-10-19T10:02:23.810Z,11.77
2022-10-19T10:04:57.665Z,12.65
2022-10-19T10:07:33.972Z,12.55
2022-10-19T10:10:02.204Z,13.07
2022-10-19T10:12:30.032Z,14.18
2022-10-19T10:14:59.602Z,13.68
2022-10-19T10:17:31.794Z,12.25
2022-10-19T10:20:20.401Z,13.15
2022-10-19T10:22:57.317Z,12.38
2022-10-19T10:25:33.434Z,12.52
2022-10-19T10:28:04.171Z,14.27
2022-10-19T10:30:37.039Z,14.52
2022-10-19T10:33:13.460Z,11.75
2022-10-19T10:35:56.377Z,12.15
2022-10-19T10:38:34.961Z,11.85
2022-10-19T10:41:07.937Z,11.75
2022-10-19T10:43:41.391Z,11.45
2022-10-19T10:46:21.711Z,11.30
2022-10-19T10:48:57.510Z,11.40
2022-10-19T10:51:33.857Z,12.85
2022-10-19T10:54:16.701Z,12.13
2022-10-19T10:56:46.695Z,12.93
2022-10-19T10:59:20.653Z,13.95
2022-10-19T11:01:59.883Z,12.60
2022-10-19T11:04:36.162Z,12.20
2022-10-19T11:07:16.774Z,13.80
2022-10-19T11:09:47.829Z,12.82
2022-10-19T11:12:20.296Z,11.60
2022-10-19T11:14:52.455Z,14.52
2022-10-19T11:17:26.840Z,11.68
2022-10-19T11:19:55.719Z,13.15
2022-10-19T11:22:43.177Z,11.98
2022-10-19T11:25:28.708Z,12.32
2022-10-19T11:30:35.008Z,11.98
2022-10-19T11:33:15.556Z,12.80
2022-10-19T11:35:53.118Z,11.00
2022-10-19T11:38:33.091Z,11.48
2022-10-19T11:41:18.623Z,12.63
2022-10-19T11:43:57.853Z,14.50
2022-10-19T11:46:33.821Z,13.18
2022-10-19T11:49:14.315Z,14.85
2022-10-19T11:51:49.925Z,15.75
2022-10-19T11:54:33.494Z,13.30
2022-10-19T11:57:11.677Z,15.10
2022-10-19T11:59:51.367Z,14.75
2022-10-19T12:02:58.507Z,13.35
2022-10-19T12:05:35.157Z,13.48
2022-10-19T12:08:23.169Z,15.00
2022-10-19T12:11:03.280Z,13.32
2022-10-19T12:13:37.763Z,13.68
2022-10-19T12:16:07.075Z,12.57
2022-10-19T12:18:40.533Z,11.57
2022-10-19T12:21:15.777Z,12.63
2022-10-19T12:23:47.243Z,13.43
2022-10-19T12:28:52.170Z,11.60
2022-10-19T12:31:23.145Z,13.45
2022-10-19T12:33:59.056Z,14.90
2022-10-19T12:36:36.960Z,14.02
2022-10-19T12:39:13.441Z,16.33
2022-10-19T12:41:47.142Z,12.88
2022-10-19T12:44:34.181Z,12.65
2022-10-19T12:47:11.228Z,12.95
2022-10-19T12:49:46.842Z,13.32
2022-10-19T12:52:18.878Z,13.25
2022-10-19T12:54:47.467Z,12.77
2022-10-19T12:57:29.916Z,12.88
2022-10-19T13:00:05.204Z,14.60
2022-10-19T13:05:08.167Z,11.65
2022-10-19T13:07:38.105Z,12.25
2022-10-19T13:10:10.162Z,14.75
2022-10-19T13:12:47.163Z,13.38
2022-10-19T13:15:51.911Z,11.27
2022-10-19T13:19:07.480Z,11.85
2022-10-19T13:21:46.702Z,12.60
2022-10-19T13:24:29.297Z,12.65
2022-10-19T13:27:40.677Z,12.63
2022-10-19T13:30:54.602Z,10.38
2022-10-19T13:33:52.382Z,12.23
2022-10-19T13:36:22.045Z,8.88
2022-10-19T13:39:06.569Z,11.05
2022-10-19T13:42:00.149Z,9.93
2022-10-19T13:44:35.872Z,9.32
2022-10-19T13:47:25.460Z,10.40
2022-10-19T13:50:07.864Z,10.32
2022-10-19T13:52:59.663Z,10.23
2022-10-19T14:04:04.554Z,10.35
2022-10-19T14:06:37.631Z,10.25
2022-10-19T14:09:48.418Z,10.60
2022-10-19T14:12:24.038Z,10.85
2022-10-19T14:14:53.822Z,10.80
2022-10-19T14:17:25.823Z,11.38
2022-10-19T14:19:58.096Z,11.50
2022-10-19T14:22:30.209Z,11.02
2022-10-19T14:25:03.503Z,12.65
2022-10-19T14:27:33.343Z,11.75
2022-10-19T14:30:01.952Z,10.35
2022-10-19T14:35:23.049Z,12.18
2022-10-19T14:37:52.010Z,11.35
2022-10-19T14:40:30.795Z,13.32
2022-10-19T14:43:00.482Z,11.05
2022-10-19T14:45:30.704Z,11.48
2022-10-19T14:48:01.519Z,11.85
2022-10-19T14:50:44.354Z,13.38
2022-10-19T14:53:26.020Z,14.23
2022-10-19T14:55:58.218Z,10.45
2022-10-19T14:58:28.238Z,11.98
2022-10-19T15:00:56.822Z,12.40
2022-10-19T15:03:31.934Z,12.90
2022-10-19T15:06:10.240Z,12.18
2022-10-19T15:08:42.913Z,14.13
2022-10-19T15:11:23.458Z,12.23
2022-10-19T15:13:59.714Z,12.90
2022-10-19T15:16:47.135Z,12.02
2022-10-19T15:19:27.557Z,12.95
2022-10-19T15:22:15.731Z,11.15
2022-10-19T15:24:57.940Z,14.95
2022-10-19T15:27:32.168Z,13.07
2022-10-19T15:30:02.807Z,12.70
2022-10-19T15:32:35.315Z,11.57
2022-10-19T15:35:12.533Z,11.88
2022-10-19T15:37:46.299Z,12.00
2022-10-19T15:40:21.432Z,13.15
2022-10-19T15:42:49.396Z,13.43
2022-10-19T15:45:35.893Z,13.07
2022-10-19T15:48:25.300Z,14.15
2022-10-19T15:50:54.199Z,14.15
2022-10-19T15:53:24.163Z,14.65
2022-10-19T15:55:52.001Z,14.80
2022-10-19T15:58:21.641Z,15.20
2022-10-19T16:00:49.976Z,15.13
2022-10-19T16:03:17.757Z,14.13
2022-10-19T16:05:46.311Z,15.30
2022-10-19T16:08:14.970Z,15.30
2022-10-19T16:10:44.216Z,15.18
2022-10-19T16:13:12.561Z,15.55
2022-10-19T16:15:40.378Z,15.50
2022-10-19T16:18:08.194Z,16.98
2022-10-19T16:20:36.477Z,16.13
2022-10-19T16:23:04.345Z,15.50
2022-10-19T16:25:32.469Z,15.50
2022-10-19T16:28:02.233Z,18.05
2022-10-19T16:30:30.088Z,17.60
2022-10-19T16:32:58.361Z,16.98
2022-10-19T16:35:26.327Z,17.05
2022-10-19T16:37:54.192Z,16.75
2022-10-19T16:40:22.766Z,18.10
2022-10-19T16:42:50.568Z,18.10
2022-10-19T23:46:13.263Z,11.43
2022-10-19T23:48:47.713Z,11.27
2022-10-19T23:51:46.209Z,12.25
2022-10-19T23:54:35.378Z,11.27
2022-10-19T23:57:24.066Z,11.10
